Time;durP1;ratioP1;P1;durP2;ratioP2;P2;SDS_P1;SDS_P2;PMS_P1;PMS_P2;Temp;Humidity;BMP_temperature;BMP_pressure;BME280_temperature;BME280_humidity;BME280_pressure;Samples;Min_cycle;Max_cycle;Signal;HPM_P1;HPM_P2
2024/01/07 00:02:16;;;;;;;15.67;11.60;;;5.10;99.90;;;;;;5093153;28;20171;-75
2024/01/07 00:04:42;;;;;;;14.20;11.43;;;5.20;99.90;;;;;;5093075;28;20184;-74
2024/01/07 00:07:08;;;;;;;13.33;11.33;;;5.30;99.90;;;;;;5093179;28;20207;-74
2024/01/07 00:09:33;;;;;;;16.27;11.37;;;5.20;99.90;;;;;;5092659;28;20288;-74
2024/01/07 00:11:59;;;;;;;17.23;12.43;;;5.20;99.90;;;;;;5093221;28;20186;-74
2024/01/07 00:14:24;;;;;;;14.83;11.50;;;5.10;99.90;;;;;;5093154;28;20182;-74
2024/01/07 00:16:50;;;;;;;13.97;11.27;;;5.10;99.90;;;;;;5093268;28;20171;-73
2024/01/07 00:19:16;;;;;;;13.47;11.70;;;5.10;99.90;;;;;;5075107;28;20650;-74
2024/01/07 00:21:41;;;;;;;15.93;10.73;;;5.10;99.90;;;;;;5093126;28;20172;-74
2024/01/07 00:24:07;;;;;;;13.77;10.60;;;5.20;99.90;;;;;;5095503;28;20582;-74
2024/01/07 00:26:32;;;;;;;15.60;12.10;;;5.20;99.90;;;;;;5097027;28;20168;-74
2024/01/07 00:28:58;;;;;;;13.93;11.50;;;5.10;99.90;;;;;;5096926;28;20265;-74
2024/01/07 00:31:23;;;;;;;14.93;12.03;;;5.10;99.90;;;;;;5096978;28;20175;-74
2024/01/07 00:33:49;;;;;;;14.00;12.17;;;4.90;99.90;;;;;;5097078;28;20172;-74
2024/01/07 00:36:15;;;;;;;14.07;11.47;;;4.90;99.90;;;;;;5096744;28;20187;-74
2024/01/07 00:38:40;;;;;;;14.63;11.77;;;5.00;99.90;;;;;;5096534;28;20171;-75
2024/01/07 00:41:06;;;;;;;16.23;13.17;;;4.80;99.90;;;;;;5096709;28;20164;-74
2024/01/07 00:43:31;;;;;;;13.33;11.50;;;4.80;99.90;;;;;;5096757;28;20732;-74
2024/01/07 00:45:57;;;;;;;14.73;11.47;;;4.80;99.90;;;;;;5096813;28;20672;-74
2024/01/07 00:48:22;;;;;;;16.60;12.07;;;4.90;99.90;;;;;;5096694;28;20246;-74
2024/01/07 00:50:48;;;;;;;14.20;12.00;;;4.80;99.90;;;;;;5095751;28;20674;-75
2024/01/07 00:53:13;;;;;;;15.60;13.03;;;4.80;99.90;;;;;;5096360;28;20163;-74
2024/01/07 00:55:39;;;;;;;14.73;12.20;;;4.60;99.90;;;;;;5096530;28;20229;-74
2024/01/07 00:58:04;;;;;;;12.77;11.40;;;4.60;99.90;;;;;;5096482;28;20606;-74
2024/01/07 01:00:30;;;;;;;14.80;12.13;;;4.50;99.90;;;;;;5096427;28;20241;-74
2024/01/07 01:02:56;;;;;;;14.47;11.87;;;4.50;99.90;;;;;;5096351;28;20168;-74
2024/01/07 01:05:21;;;;;;;15.67;12.77;;;4.50;99.90;;;;;;5096127;28;20192;-74
2024/01/07 01:07:47;;;;;;;14.57;12.60;;;4.60;99.90;;;;;;5096179;28;20179;-74
2024/01/07 01:10:14;;;;;;;17.87;13.40;;;4.60;99.90;;;;;;5096257;28;20208;-73
2024/01/07 01:12:40;;;;;;;17.33;12.50;;;4.70;99.90;;;;;;5096265;28;20168;-74
2024/01/07 01:15:06;;;;;;;15.83;12.23;;;4.70;99.90;;;;;;5096115;28;20175;-73
2024/01/07 01:17:31;;;;;;;16.50;12.23;;;4.70;99.90;;;;;;5078021;28;20752;-74
2024/01/07 01:19:57;;;;;;;15.17;12.07;;;4.70;99.90;;;;;;5095958;28;20216;-75
2024/01/07 01:22:22;;;;;;;14.63;11.80;;;4.70;99.90;;;;;;5095725;28;20203;-74
2024/01/07 01:24:48;;;;;;;15.70;12.37;;;4.60;99.90;;;;;;5095933;28;20176;-74
2024/01/07 01:27:15;;;;;;;15.87;12.37;;;4.60;99.90;;;;;;5096047;28;20168;-74
2024/01/07 01:29:41;;;;;;;14.30;11.30;;;4.70;99.90;;;;;;5095429;28;20235;-74
2024/01/07 01:32:06;;;;;;;13.63;11.70;;;4.70;99.90;;;;;;5095949;28;20160;-75
2024/01/07 01:34:32;;;;;;;14.67;11.27;;;4.80;99.90;;;;;;5094585;28;20180;-73
2024/01/07 01:36:58;;;;;;;13.87;11.40;;;4.80;99.90;;;;;;5095729;28;20176;-75
2024/01/07 01:39:23;;;;;;;15.80;12.13;;;4.80;99.90;;;;;;5095948;28;20168;-75
2024/01/07 01:41:49;;;;;;;16.53;12.63;;;4.80;99.90;;;;;;5095605;28;20196;-74
2024/01/07 01:44:14;;;;;;;13.70;11.53;;;4.70;99.90;;;;;;5095658;28;20179;-74
2024/01/07 01:46:40;;;;;;;16.10;12.87;;;4.70;99.90;;;;;;5095493;28;20198;-74
2024/01/07 01:49:07;;;;;;;16.57;12.97;;;4.60;99.90;;;;;;5095388;28;20242;-75
2024/01/07 01:51:34;;;;;;;17.80;13.67;;;4.50;99.90;;;;;;5095108;28;20174;-75
2024/01/07 01:54:00;;;;;;;14.83;12.70;;;4.60;99.90;;;;;;5095384;28;20168;-75
2024/01/07 01:56:27;;;;;;;16.77;12.43;;;4.50;99.90;;;;;;5095440;28;20168;-76
2024/01/07 01:58:53;;;;;;;15.20;12.33;;;4.40;99.90;;;;;;5095245;28;20220;-74
2024/01/07 02:01:19;;;;;;;15.63;12.53;;;4.20;99.90;;;;;;5095119;28;20714;-75
2024/01/07 02:03:44;;;;;;;18.03;13.43;;;4.00;99.90;;;;;;5077025;28;20209;-75
2024/01/07 02:06:13;;;;;;;18.47;13.47;;;3.90;99.90;;;;;;5094759;28;20267;-75
2024/01/07 02:08:39;;;;;;;18.23;13.07;;;3.70;99.90;;;;;;5095350;28;20168;-74
2024/01/07 02:11:18;;;;;;;20.17;14.23;;;3.70;99.90;;;;;;5094941;28;20212;-74
2024/01/07 02:13:44;;;;;;;20.67;14.97;;;3.60;99.90;;;;;;5095112;28;20164;-74
2024/01/07 02:16:10;;;;;;;17.23;13.23;;;3.50;99.90;;;;;;5094824;28;20172;-74
2024/01/07 02:18:37;;;;;;;18.20;12.60;;;3.50;99.90;;;;;;5094709;28;20220;-75
2024/01/07 02:21:03;;;;;;;16.20;11.93;;;3.60;99.90;;;;;;5094748;28;20168;-74
2024/01/07 02:23:29;;;;;;;15.10;10.00;;;3.50;99.90;;;;;;5094739;28;20172;-75
2024/01/07 02:25:54;;;;;;;14.93;11.30;;;3.30;99.90;;;;;;5094844;28;20179;-75
2024/01/07 02:28:20;;;;;;;15.47;11.47;;;3.30;99.90;;;;;;5094687;28;20658;-74
2024/01/07 02:30:45;;;;;;;16.43;11.97;;;3.30;99.90;;;;;;5094090;28;20593;-75
2024/01/07 02:33:11;;;;;;;15.63;12.00;;;3.40;99.90;;;;;;5094303;28;20600;-74
2024/01/07 02:35:37;;;;;;;16.73;11.77;;;3.40;99.90;;;;;;5094697;28;20191;-74
2024/01/07 02:38:02;;;;;;;17.60;12.03;;;3.40;99.90;;;;;;5094660;28;20191;-74
2024/01/07 02:40:28;;;;;;;15.07;11.87;;;3.40;99.90;;;;;;5094527;28;20233;-74
2024/01/07 02:42:55;;;;;;;15.33;11.83;;;3.40;99.90;;;;;;5094561;28;20169;-74
2024/01/07 02:45:21;;;;;;;16.63;12.37;;;3.30;99.90;;;;;;5094372;28;20220;-75
2024/01/07 02:47:47;;;;;;;20.03;13.17;;;3.30;99.90;;;;;;5093897;28;20274;-75
2024/01/07 02:50:12;;;;;;;18.40;13.33;;;3.20;99.90;;;;;;5094395;28;20207;-75
2024/01/07 02:52:38;;;;;;;16.33;12.87;;;3.30;99.90;;;;;;5094422;28;20168;-74
2024/01/07 02:55:04;;;;;;;17.97;13.57;;;3.40;99.90;;;;;;5094308;28;20170;-74
2024/01/07 02:57:29;;;;;;;16.10;12.50;;;3.40;99.90;;;;;;5094157;28;20585;-74
2024/01/07 02:59:55;;;;;;;18.30;12.97;;;3.40;99.90;;;;;;5093940;28;20172;-74
2024/01/07 03:02:20;;;;;;;18.20;13.50;;;3.30;99.90;;;;;;5093699;28;20164;-74
2024/01/07 03:04:46;;;;;;;17.10;12.83;;;3.30;99.90;;;;;;5094110;28;20180;-74
2024/01/07 03:07:11;;;;;;;19.80;14.70;;;3.40;99.90;;;;;;5094175;28;20176;-73
2024/01/07 03:09:37;;;;;;;17.83;13.63;;;3.40;99.90;;;;;;5093888;28;20657;-74
2024/01/07 03:12:03;;;;;;;19.07;13.43;;;3.40;99.90;;;;;;5094261;28;20182;-74
2024/01/07 03:14:28;;;;;;;20.00;14.07;;;3.60;99.90;;;;;;5093980;28;20260;-74
2024/01/07 03:16:54;;;;;;;19.57;14.63;;;3.60;99.90;;;;;;5093549;28;20197;-74
2024/01/07 03:19:20;;;;;;;19.27;14.17;;;3.60;99.90;;;;;;5093630;28;20639;-74
2024/01/07 03:21:48;;;;;;;19.43;14.30;;;3.40;99.90;;;;;;5093772;28;20168;-74
2024/01/07 03:24:13;;;;;;;19.50;14.63;;;3.30;99.90;;;;;;5093899;28;20203;-75
2024/01/07 03:26:39;;;;;;;21.17;15.33;;;3.30;99.90;;;;;;5093813;28;20676;-75
2024/01/07 03:29:04;;;;;;;20.07;14.83;;;3.40;99.90;;;;;;5067982;28;20563;-74
2024/01/07 03:31:30;;;;;;;21.83;15.07;;;3.40;99.90;;;;;;5053145;28;20177;-74
2024/01/07 03:33:56;;;;;;;20.33;14.73;;;3.50;99.90;;;;;;5053477;28;20272;-73
2024/01/07 03:36:21;;;;;;;21.00;15.70;;;3.60;99.90;;;;;;5053523;28;20173;-74
2024/01/07 03:38:47;;;;;;;22.03;15.13;;;3.50;99.90;;;;;;5053187;28;20226;-74
2024/01/07 03:41:20;;;;;;;22.93;16.43;;;3.50;99.90;;;;;;5053335;28;20252;-74
2024/01/07 03:43:47;;;;;;;27.67;17.63;;;3.50;99.90;;;;;;5053333;28;20175;-74
2024/01/07 03:46:13;;;;;;;23.40;16.70;;;3.40;99.90;;;;;;5052973;28;20180;-73
2024/01/07 03:48:40;;;;;;;25.03;16.70;;;3.30;99.90;;;;;;5053010;28;20271;-74
2024/01/07 03:51:05;;;;;;;25.93;18.13;;;3.40;99.90;;;;;;5053168;28;20256;-72
2024/01/07 03:53:31;;;;;;;25.70;18.07;;;3.40;99.90;;;;;;5053100;28;20197;-74
2024/01/07 03:55:56;;;;;;;24.00;17.07;;;3.40;99.90;;;;;;5052845;28;20230;-73
2024/01/07 03:58:22;;;;;;;26.87;18.40;;;3.40;99.90;;;;;;5056558;28;20164;-74
2024/01/07 04:00:47;;;;;;;26.77;18.80;;;3.30;99.90;;;;;;5059236;28;20180;-74
2024/01/07 04:03:13;;;;;;;26.63;18.43;;;3.20;99.90;;;;;;5059586;28;20187;-75
2024/01/07 04:05:38;;;;;;;25.57;17.87;;;3.20;99.90;;;;;;5059447;28;20232;-74
2024/01/07 04:08:04;;;;;;;29.10;19.10;;;3.30;99.90;;;;;;5059708;28;20204;-74
2024/01/07 04:10:30;;;;;;;29.40;19.80;;;3.10;99.90;;;;;;5059405;28;20672;-75
2024/01/07 04:12:56;;;;;;;27.50;18.90;;;3.20;99.90;;;;;;5059608;28;20581;-74
2024/01/07 04:15:21;;;;;;;28.37;20.33;;;3.30;99.90;;;;;;5057513;28;20181;-74
2024/01/07 04:17:47;;;;;;;31.10;20.67;;;3.30;99.90;;;;;;5058328;28;20203;-74
2024/01/07 04:20:14;;;;;;;30.33;19.90;;;3.20;99.90;;;;;;5059243;28;20200;-73
2024/01/07 04:22:39;;;;;;;28.37;17.80;;;3.10;99.90;;;;;;5058125;28;20234;-74
2024/01/07 04:25:08;;;;;;;35.10;21.90;;;3.00;99.90;;;;;;5059305;28;20655;-74
2024/01/07 04:27:34;;;;;;;35.53;22.07;;;2.90;99.90;;;;;;5059350;28;20303;-75
2024/01/07 04:30:00;;;;;;;39.37;23.30;;;2.90;99.90;;;;;;5081830;28;20249;-74
2024/01/07 04:32:26;;;;;;;34.83;21.90;;;2.80;99.90;;;;;;5099663;28;20266;-74
2024/01/07 04:34:52;;;;;;;37.00;22.67;;;2.80;99.90;;;;;;5099491;28;20172;-75
2024/01/07 04:37:17;;;;;;;36.83;22.60;;;2.80;99.90;;;;;;5099569;28;20217;-74
2024/01/07 04:39:43;;;;;;;36.53;22.17;;;2.80;99.90;;;;;;5099622;28;20190;-74
2024/01/07 04:42:08;;;;;;;40.60;23.83;;;2.80;99.90;;;;;;5099322;28;20191;-74
2024/01/07 04:44:34;;;;;;;39.50;22.07;;;2.80;99.90;;;;;;5099065;28;20396;-75
2024/01/07 04:47:00;;;;;;;39.17;23.10;;;2.80;99.90;;;;;;5099467;28;20160;-74
2024/01/07 04:49:26;;;;;;;40.93;25.23;;;2.80;99.90;;;;;;5099399;28;20620;-74
2024/01/07 04:51:51;;;;;;;36.80;21.80;;;2.70;99.90;;;;;;5099710;28;20175;-75
2024/01/07 04:54:18;;;;;;;42.00;25.13;;;2.80;99.90;;;;;;5099580;28;20542;-75
2024/01/07 04:56:44;;;;;;;39.80;24.10;;;2.80;99.90;;;;;;5099613;28;20175;-75
2024/01/07 04:59:09;;;;;;;41.50;24.53;;;2.80;99.90;;;;;;5098781;28;20168;-75
2024/01/07 05:01:35;;;;;;;43.33;23.70;;;2.90;99.90;;;;;;5099416;28;20195;-75
2024/01/07 05:04:02;;;;;;;43.77;25.10;;;2.80;99.90;;;;;;5099041;28;20220;-73
2024/01/07 05:06:27;;;;;;;41.77;25.47;;;2.90;99.90;;;;;;5099064;28;20207;-74
2024/01/07 05:08:53;;;;;;;41.30;23.50;;;2.60;99.90;;;;;;5098743;28;20160;-75
2024/01/07 05:11:19;;;;;;;42.30;22.60;;;2.60;99.90;;;;;;5096090;28;20204;-74
2024/01/07 05:13:44;;;;;;;49.27;26.70;;;2.60;99.90;;;;;;5077380;28;20262;-74
2024/01/07 05:16:19;;;;;;;43.87;23.90;;;2.50;99.90;;;;;;5095993;28;20199;-74
2024/01/07 05:18:48;;;;;;;38.87;23.57;;;2.50;99.90;;;;;;5096029;28;20571;-74
2024/01/07 05:21:18;;;;;;;41.20;24.33;;;2.50;99.90;;;;;;5095749;28;20623;-73
2024/01/07 05:23:44;;;;;;;40.33;24.33;;;2.60;99.90;;;;;;5077853;28;20706;-75
2024/01/07 05:26:09;;;;;;;39.50;20.53;;;2.60;99.90;;;;;;5095845;28;20258;-74
2024/01/07 05:28:36;;;;;;;45.13;25.97;;;2.60;99.90;;;;;;5095201;28;20579;-74
2024/01/07 05:31:02;;;;;;;41.20;24.20;;;2.60;99.90;;;;;;5095492;28;20311;-74
2024/01/07 05:33:27;;;;;;;41.53;24.70;;;2.60;99.90;;;;;;5095780;28;20654;-74
2024/01/07 05:35:53;;;;;;;40.30;23.57;;;2.60;99.90;;;;;;5095498;28;20171;-74
2024/01/07 05:38:19;;;;;;;35.43;22.83;;;2.60;99.90;;;;;;5095613;28;20196;-75
2024/01/07 05:40:44;;;;;;;38.40;20.40;;;2.60;99.90;;;;;;5095332;28;20175;-75
2024/01/07 05:43:10;;;;;;;37.10;20.83;;;2.60;99.90;;;;;;5095240;28;20168;-74
2024/01/07 05:45:35;;;;;;;36.73;21.97;;;2.60;99.90;;;;;;5095333;28;20176;-76
2024/01/07 05:48:01;;;;;;;39.27;22.97;;;2.60;99.90;;;;;;5095243;28;20172;-74
2024/01/07 05:50:26;;;;;;;34.47;22.23;;;2.60;99.90;;;;;;5095071;28;20235;-75
2024/01/07 05:52:52;;;;;;;35.37;21.87;;;2.60;99.90;;;;;;5095135;28;20187;-75
2024/01/07 05:55:17;;;;;;;37.90;23.43;;;2.60;99.90;;;;;;5077092;28;20180;-74
2024/01/07 05:57:43;;;;;;;38.20;23.23;;;2.70;99.90;;;;;;5094731;28;20168;-74
2024/01/07 06:00:10;;;;;;;43.93;24.73;;;2.60;99.90;;;;;;5095267;28;20168;-74
2024/01/07 06:02:36;;;;;;;41.00;24.13;;;2.60;99.90;;;;;;5077336;28;20172;-73
2024/01/07 06:05:03;;;;;;;40.63;23.20;;;2.60;99.90;;;;;;5095017;28;20187;-74
2024/01/07 06:07:29;;;;;;;40.43;24.43;;;2.50;99.90;;;;;;5094826;28;20171;-74
2024/01/07 06:09:55;;;;;;;41.37;24.70;;;2.60;99.90;;;;;;5094942;28;20218;-74
2024/01/07 06:12:20;;;;;;;42.33;23.97;;;2.60;99.90;;;;;;5094605;28;20211;-76
2024/01/07 06:14:46;;;;;;;39.60;22.60;;;2.60;99.90;;;;;;5094909;28;20179;-74
2024/01/07 06:17:11;;;;;;;40.07;21.77;;;2.60;99.90;;;;;;5094912;28;20168;-75
2024/01/07 06:19:37;;;;;;;38.40;23.83;;;2.60;99.90;;;;;;5094811;28;20202;-74
2024/01/07 06:22:03;;;;;;;39.57;23.37;;;2.60;99.90;;;;;;5076082;28;20716;-75
2024/01/07 06:24:28;;;;;;;39.93;24.00;;;2.60;99.90;;;;;;5094646;28;20171;-74
2024/01/07 06:26:54;;;;;;;43.20;24.67;;;2.60;99.90;;;;;;5094532;28;20179;-74
2024/01/07 06:29:19;;;;;;;45.70;25.57;;;2.70;99.90;;;;;;5094100;28;20234;-74
2024/01/07 06:31:45;;;;;;;44.17;23.73;;;2.60;99.90;;;;;;5094768;28;20259;-74
2024/01/07 06:34:13;;;;;;;40.70;24.23;;;2.60;99.90;;;;;;5094676;28;20172;-74
2024/01/07 06:36:41;;;;;;;42.90;25.37;;;2.60;99.90;;;;;;5094105;28;20172;-74
2024/01/07 06:39:07;;;;;;;44.43;24.23;;;2.80;99.90;;;;;;5094130;28;20168;-74
2024/01/07 06:41:33;;;;;;;49.97;26.17;;;2.70;99.90;;;;;;5094251;28;20180;-74
2024/01/07 06:43:59;;;;;;;45.20;24.63;;;2.80;99.90;;;;;;5094253;28;20183;-74
2024/01/07 06:46:25;;;;;;;46.63;24.03;;;2.80;99.90;;;;;;5094322;28;20184;-75
2024/01/07 06:48:51;;;;;;;46.23;25.40;;;2.80;99.90;;;;;;5093926;28;20164;-75
2024/01/07 06:51:16;;;;;;;43.10;24.77;;;2.80;99.90;;;;;;5094070;28;20215;-75
2024/01/07 06:53:42;;;;;;;45.23;25.17;;;2.70;99.90;;;;;;5094218;28;20246;-74
2024/01/07 06:56:07;;;;;;;50.67;25.30;;;2.70;99.90;;;;;;5093840;28;20184;-73
2024/01/07 06:58:33;;;;;;;48.13;25.40;;;2.80;99.90;;;;;;5075848;28;20179;-74
2024/01/07 07:00:58;;;;;;;46.87;25.50;;;2.80;99.90;;;;;;5093930;28;20167;-74
2024/01/07 07:03:24;;;;;;;48.10;25.00;;;2.70;99.90;;;;;;5075775;28;20267;-74
2024/01/07 07:05:49;;;;;;;56.57;27.93;;;2.80;99.90;;;;;;5093770;28;20198;-74
2024/01/07 07:08:16;;;;;;;46.83;24.10;;;2.70;99.90;;;;;;5093960;28;20172;-73
2024/01/07 07:10:41;;;;;;;41.83;20.90;;;2.80;99.90;;;;;;5093536;28;20215;-74
2024/01/07 07:13:07;;;;;;;43.57;22.90;;;2.60;99.90;;;;;;5093482;28;20225;-75
2024/01/07 07:15:32;;;;;;;47.67;25.47;;;2.60;99.90;;;;;;5093589;28;20197;-73
2024/01/07 07:17:58;;;;;;;50.20;25.80;;;2.50;99.90;;;;;;5093632;28;20259;-75
2024/01/07 07:20:24;;;;;;;50.57;24.27;;;2.60;99.90;;;;;;5093429;28;20175;-74
2024/01/07 07:22:49;;;;;;;46.90;26.23;;;2.70;99.90;;;;;;5093572;28;20171;-74
2024/01/07 07:25:15;;;;;;;51.90;25.83;;;2.60;99.90;;;;;;5093497;28;20168;-74
2024/01/07 07:27:40;;;;;;;52.23;26.13;;;2.70;99.90;;;;;;5093685;28;20258;-75
2024/01/07 07:30:06;;;;;;;52.43;25.97;;;2.60;99.90;;;;;;5093346;28;20226;-74
2024/01/07 07:32:32;;;;;;;52.27;26.20;;;2.60;99.90;;;;;;5092784;28;20198;-74
2024/01/07 07:34:59;;;;;;;53.07;26.27;;;2.70;99.90;;;;;;5093282;28;20211;-74
2024/01/07 07:37:25;;;;;;;53.67;25.77;;;2.70;99.90;;;;;;5092660;28;20191;-74
2024/01/07 07:39:50;;;;;;;53.07;27.77;;;2.70;99.90;;;;;;5093596;28;20233;-74
2024/01/07 07:42:16;;;;;;;50.80;26.13;;;2.60;99.90;;;;;;5093257;28;20168;-75
2024/01/07 07:44:42;;;;;;;50.47;24.73;;;2.60;99.90;;;;;;5074821;28;20205;-74
2024/01/07 07:47:11;;;;;;;56.97;28.00;;;2.60;99.90;;;;;;5093426;28;20186;-74
2024/01/07 07:49:39;;;;;;;47.27;22.87;;;2.60;99.90;;;;;;5092901;28;20195;-75
2024/01/07 07:52:06;;;;;;;49.67;24.87;;;2.60;99.90;;;;;;5074996;28;20176;-75
2024/01/07 07:54:31;;;;;;;54.77;27.90;;;2.50;99.90;;;;;;5093225;28;20160;-74
2024/01/07 07:56:58;;;;;;;49.90;27.53;;;2.60;99.90;;;;;;5093009;28;20168;-75
2024/01/07 07:59:23;;;;;;;40.80;17.83;;;2.60;99.90;;;;;;5074295;28;20176;-74
2024/01/07 08:01:49;;;;;;;49.23;26.57;;;2.70;99.90;;;;;;5092975;28;20195;-74
2024/01/07 08:04:15;;;;;;;55.40;28.03;;;2.60;99.90;;;;;;5093321;28;20262;-74
2024/01/07 08:06:42;;;;;;;58.93;29.93;;;2.70;99.90;;;;;;5092611;28;20199;-73
2024/01/07 08:09:08;;;;;;;55.40;30.13;;;2.80;99.90;;;;;;5093043;28;20176;-73
2024/01/07 08:11:34;;;;;;;59.50;31.10;;;2.80;99.90;;;;;;5092847;28;20258;-74
2024/01/07 08:14:01;;;;;;;59.13;31.17;;;2.90;99.90;;;;;;5092888;28;20164;-74
2024/01/07 08:16:27;;;;;;;59.00;29.43;;;2.80;99.90;;;;;;5092510;28;20176;-74
2024/01/07 08:18:56;;;;;;;52.23;27.60;;;2.80;99.90;;;;;;5092830;28;20176;-74
2024/01/07 08:21:22;;;;;;;54.00;28.30;;;2.70;99.90;;;;;;5074460;28;20195;-74
2024/01/07 08:23:48;;;;;;;50.77;23.37;;;2.70;99.90;;;;;;5092845;28;20198;-74
2024/01/07 08:26:19;;;;;;;57.63;29.47;;;2.60;99.90;;;;;;5092658;28;20168;-74
2024/01/07 08:28:45;;;;;;;57.67;28.97;;;2.50;99.90;;;;;;5092609;28;20172;-74
2024/01/07 08:31:10;;;;;;;53.57;27.93;;;2.60;99.90;;;;;;5092965;28;20207;-73
2024/01/07 08:33:36;;;;;;;52.77;28.47;;;2.60;99.90;;;;;;5092861;28;20187;-74
2024/01/07 08:36:01;;;;;;;51.17;23.67;;;2.70;99.90;;;;;;5092307;28;20195;-74
2024/01/07 08:38:27;;;;;;;43.20;20.37;;;2.60;99.90;;;;;;5092630;28;20156;-74
2024/01/07 08:40:52;;;;;;;47.87;26.40;;;2.50;99.90;;;;;;5092052;28;20658;-73
2024/01/07 08:43:18;;;;;;;52.13;25.77;;;2.50;99.90;;;;;;5092519;28;20623;-74
2024/01/07 08:45:43;;;;;;;49.97;26.80;;;2.50;99.90;;;;;;5077633;28;20168;-74
2024/01/07 08:48:09;;;;;;;48.00;24.50;;;2.60;99.90;;;;;;5078215;28;20164;-74
2024/01/07 08:50:35;;;;;;;47.60;24.90;;;2.60;99.90;;;;;;5095707;28;20220;-74
2024/01/07 08:53:00;;;;;;;37.37;21.43;;;2.60;99.90;;;;;;5096375;28;20186;-74
2024/01/07 08:55:27;;;;;;;36.53;20.47;;;2.50;99.90;;;;;;5096238;28;20229;-74
2024/01/07 08:57:52;;;;;;;37.03;20.70;;;2.50;99.90;;;;;;5096060;28;20292;-74
2024/01/07 09:00:19;;;;;;;37.80;22.33;;;2.60;99.90;;;;;;5096030;28;20168;-74
2024/01/07 09:02:44;;;;;;;34.50;21.37;;;2.60;99.90;;;;;;5096020;28;20628;-75
2024/01/07 09:05:11;;;;;;;37.53;21.87;;;2.50;99.90;;;;;;5095259;28;20239;-75
2024/01/07 09:07:37;;;;;;;38.00;20.03;;;2.60;99.90;;;;;;5096015;28;20255;-74
2024/01/07 09:10:03;;;;;;;36.93;21.90;;;2.50;99.90;;;;;;5095957;28;20283;-73
2024/01/07 09:12:29;;;;;;;31.83;18.70;;;2.60;99.90;;;;;;5096052;28;20175;-75
2024/01/07 09:14:54;;;;;;;32.53;18.80;;;2.60;99.90;;;;;;5095592;28;20203;-75
2024/01/07 09:17:21;;;;;;;35.03;20.83;;;2.40;99.90;;;;;;5095932;28;20238;-74
2024/01/07 09:19:47;;;;;;;30.17;19.63;;;2.40;99.90;;;;;;5077596;28;20195;-75
2024/01/07 09:22:12;;;;;;;31.70;17.83;;;2.40;99.90;;;;;;5077637;28;20175;-75
2024/01/07 09:24:38;;;;;;;32.73;19.30;;;2.40;99.90;;;;;;5095762;28;20200;-75
2024/01/07 09:27:03;;;;;;;23.03;14.70;;;2.40;99.90;;;;;;5095678;28;20172;-75
2024/01/07 09:29:29;;;;;;;27.40;17.47;;;2.40;99.90;;;;;;5094886;28;20698;-75
2024/01/07 09:31:54;;;;;;;23.17;14.13;;;2.30;99.90;;;;;;5095790;28;20176;-75
2024/01/07 09:34:20;;;;;;;35.67;19.80;;;2.30;99.90;;;;;;5095598;28;20172;-75
2024/01/07 09:36:45;;;;;;;30.00;19.37;;;2.20;99.90;;;;;;5095695;28;20635;-75
2024/01/07 09:39:11;;;;;;;31.40;19.13;;;2.30;99.90;;;;;;5095471;28;20175;-74
2024/01/07 09:41:37;;;;;;;34.97;20.07;;;2.20;99.90;;;;;;5077056;28;20228;-75
2024/01/07 09:44:04;;;;;;;31.87;18.73;;;2.20;99.90;;;;;;5095160;28;20178;-73
2024/01/07 09:46:32;;;;;;;29.27;15.57;;;2.30;99.90;;;;;;5095266;28;20172;-75
2024/01/07 09:48:57;;;;;;;31.67;17.03;;;2.30;99.90;;;;;;5094745;28;20194;-75
2024/01/07 09:51:23;;;;;;;35.17;21.97;;;2.30;99.90;;;;;;5077123;28;20674;-74
2024/01/07 09:53:54;;;;;;;34.77;20.47;;;2.30;99.90;;;;;;5095570;28;20259;-75
2024/01/07 09:56:24;;;;;;;24.03;14.20;;;2.30;99.90;;;;;;5094112;28;20171;-75
2024/01/07 09:58:50;;;;;;;35.53;21.93;;;2.30;99.90;;;;;;5094684;28;20175;-74
2024/01/07 10:01:17;;;;;;;35.43;23.77;;;2.40;99.90;;;;;;5095016;28;20180;-74
2024/01/07 10:03:43;;;;;;;33.20;18.97;;;2.40;99.90;;;;;;5095105;28;20172;-74
2024/01/07 10:06:11;;;;;;;36.20;21.97;;;2.50;99.90;;;;;;5095008;28;20215;-74
2024/01/07 10:08:37;;;;;;;36.73;22.17;;;2.50;99.90;;;;;;5094590;28;20180;-74
2024/01/07 10:11:04;;;;;;;34.63;20.03;;;2.50;99.90;;;;;;5094786;28;20644;-75
2024/01/07 10:13:30;;;;;;;35.37;22.60;;;2.40;99.90;;;;;;5094945;28;20257;-74
2024/01/07 10:15:56;;;;;;;37.83;22.83;;;2.40;99.90;;;;;;5094840;28;20313;-75
2024/01/07 10:18:22;;;;;;;27.37;16.50;;;2.40;99.90;;;;;;5094424;28;20586;-75
2024/01/07 10:20:48;;;;;;;37.23;22.60;;;2.40;99.90;;;;;;5094218;28;20500;-75
2024/01/07 10:23:21;;;;;;;35.93;22.67;;;2.40;99.90;;;;;;5094366;28;20171;-74
2024/01/07 10:25:47;;;;;;;32.60;21.50;;;2.40;99.90;;;;;;5094545;28;20518;-75
2024/01/07 10:28:14;;;;;;;32.30;19.67;;;2.40;99.90;;;;;;5094497;28;20171;-75
2024/01/07 10:30:40;;;;;;;35.47;21.23;;;2.40;99.90;;;;;;5093994;28;20235;-75
2024/01/07 10:33:07;;;;;;;32.03;20.47;;;2.40;99.90;;;;;;5093934;28;20258;-75
2024/01/07 10:35:34;;;;;;;32.73;19.93;;;2.30;99.90;;;;;;5094429;28;20176;-76
2024/01/07 10:38:01;;;;;;;26.37;17.80;;;2.30;99.90;;;;;;5094463;28;20171;-75
2024/01/07 10:40:27;;;;;;;29.53;19.17;;;2.30;99.90;;;;;;5093917;28;20653;-74
2024/01/07 10:42:54;;;;;;;30.37;18.27;;;2.30;99.90;;;;;;5094499;28;20225;-75
2024/01/07 10:45:20;;;;;;;32.20;21.20;;;2.20;99.90;;;;;;5093929;28;20171;-75
2024/01/07 10:47:50;;;;;;;35.90;22.17;;;2.30;99.90;;;;;;5093889;28;20167;-76
2024/01/07 10:50:17;;;;;;;29.03;16.43;;;2.30;99.90;;;;;;5093408;28;20214;-75
2024/01/07 10:52:43;;;;;;;32.57;19.80;;;2.20;99.90;;;;;;5094196;28;20164;-76
2024/01/07 10:55:10;;;;;;;33.97;21.80;;;2.20;99.90;;;;;;5075808;28;20180;-76
2024/01/07 10:57:36;;;;;;;31.13;20.83;;;2.20;99.90;;;;;;5093942;28;20221;-75
2024/01/07 11:00:08;;;;;;;30.10;17.63;;;2.30;99.90;;;;;;5093355;28;20433;-76
2024/01/07 11:02:50;;;;;;;26.40;16.37;;;2.30;99.90;;;;;;5093805;28;20305;-75
2024/01/07 11:05:32;;;;;;;33.77;20.90;;;2.30;99.90;;;;;;5093585;28;20187;-75
2024/01/07 11:08:28;;;;;;;32.33;19.80;;;2.20;99.90;;;;;;5093575;28;20172;-74
2024/01/07 11:11:03;;;;;;;28.00;17.03;;;2.20;99.90;;;;;;5061952;28;20322;-75
2024/01/07 11:13:38;;;;;;;28.03;14.90;;;2.10;99.90;;;;;;5093917;28;20177;-75
2024/01/07 11:16:04;;;;;;;29.97;18.50;;;2.10;99.90;;;;;;5093320;28;20253;-75
2024/01/07 11:18:33;;;;;;;31.87;19.50;;;2.10;99.90;;;;;;5075250;28;20229;-75
2024/01/07 11:21:03;;;;;;;31.63;20.07;;;2.20;99.90;;;;;;5093429;28;20275;-75
2024/01/07 11:23:42;;;;;;;25.13;14.63;;;2.30;99.90;;;;;;5074843;28;20179;-75
2024/01/07 11:26:11;;;;;;;25.27;17.30;;;2.30;99.90;;;;;;5093397;28;20179;-76
2024/01/07 11:28:50;;;;;;;25.97;18.10;;;2.20;99.90;;;;;;5093674;28;20172;-75
2024/01/07 11:31:17;;;;;;;26.00;14.77;;;2.30;99.90;;;;;;5052814;28;20240;-75
2024/01/07 11:33:48;;;;;;;23.90;14.63;;;2.20;99.90;;;;;;5053052;28;20170;-75
2024/01/07 11:36:18;;;;;;;28.63;18.77;;;2.20;99.90;;;;;;5052955;28;20187;-75
2024/01/07 11:38:44;;;;;;;25.33;15.47;;;2.30;99.90;;;;;;5052971;28;20196;-74
2024/01/07 11:41:12;;;;;;;29.90;18.43;;;2.40;99.90;;;;;;5053128;28;20161;-75
2024/01/07 11:43:38;;;;;;;27.33;17.87;;;2.30;99.90;;;;;;5053171;28;20165;-76
2024/01/07 11:46:04;;;;;;;25.37;14.80;;;2.30;99.90;;;;;;5052765;28;20169;-75
2024/01/07 11:48:29;;;;;;;29.37;18.33;;;2.30;99.90;;;;;;5052902;28;20169;-76
2024/01/07 11:50:55;;;;;;;25.20;14.20;;;2.30;99.90;;;;;;5051897;28;20263;-76
2024/01/07 11:53:20;;;;;;;25.93;16.73;;;2.30;99.90;;;;;;5052585;28;20165;-75
2024/01/07 11:55:47;;;;;;;24.73;17.17;;;2.40;99.90;;;;;;5052542;28;20179;-75
2024/01/07 11:58:12;;;;;;;25.33;16.70;;;2.40;99.90;;;;;;5052735;28;20177;-75
2024/01/07 12:00:38;;;;;;;28.03;18.33;;;2.30;99.90;;;;;;5052077;28;20264;-76
2024/01/07 12:03:04;;;;;;;27.83;16.70;;;2.30;99.90;;;;;;5052308;28;20173;-76
2024/01/07 12:05:30;;;;;;;26.03;16.90;;;2.20;99.90;;;;;;5052862;28;20652;-74
2024/01/07 12:07:56;;;;;;;26.03;16.57;;;2.30;99.90;;;;;;5052924;28;20217;-75
2024/01/07 12:10:23;;;;;;;24.50;14.60;;;2.30;99.90;;;;;;5052468;28;20620;-75
2024/01/07 12:12:50;;;;;;;24.33;15.20;;;2.30;99.90;;;;;;5052441;28;20177;-75
2024/01/07 12:15:16;;;;;;;25.23;16.07;;;2.30;99.90;;;;;;5052765;28;20185;-75
2024/01/07 12:17:42;;;;;;;24.23;16.07;;;2.20;99.90;;;;;;5052289;28;20169;-76
2024/01/07 12:20:09;;;;;;;21.57;14.97;;;2.20;99.90;;;;;;5054894;28;20161;-76
2024/01/07 12:22:38;;;;;;;18.77;13.10;;;2.20;99.90;;;;;;5056760;28;20227;-75
2024/01/07 12:25:05;;;;;;;17.77;10.43;;;2.20;99.90;;;;;;5056590;28;20165;-76
2024/01/07 12:27:31;;;;;;;25.87;15.43;;;2.10;99.90;;;;;;5055726;28;20632;-75
2024/01/07 12:29:58;;;;;;;25.40;16.17;;;2.10;99.90;;;;;;5077705;28;20219;-76
2024/01/07 12:32:26;;;;;;;23.43;14.17;;;2.20;99.90;;;;;;5096560;28;20603;-77